Time;durP1;ratioP1;P1;durP2;ratioP2;P2;SDS_P1;SDS_P2;PMS_P1;PMS_P2;Temp;Humidity;BMP_temperature;BMP_pressure;BME280_temperature;BME280_humidity;BME280_pressure;Samples;Min_cycle;Max_cycle;Signal;HPM_P1;HPM_P2
2022/12/25 00:01:16;;;;;;;47.95;15.93;;;6.50;99.90;;;;;;5049886;28;20509;-53
2022/12/25 00:03:41;;;;;;;57.13;17.25;;;6.60;99.90;;;;;;5049040;28;20383;-52
2022/12/25 00:06:07;;;;;;;64.63;18.90;;;6.60;99.90;;;;;;5049463;28;20037;-54
2022/12/25 00:08:33;;;;;;;57.53;18.93;;;6.60;99.90;;;;;;5081731;28;20033;-54
2022/12/25 00:11:05;;;;;;;55.70;16.08;;;6.70;99.90;;;;;;5049959;28;20559;-51
2022/12/25 00:13:31;;;;;;;57.85;17.15;;;6.70;99.90;;;;;;5047395;28;20044;-54
2022/12/25 00:15:57;;;;;;;61.75;17.08;;;6.70;99.90;;;;;;5029498;28;20041;-53
2022/12/25 00:18:23;;;;;;;47.57;15.33;;;6.80;99.90;;;;;;5040348;28;20098;-51
2022/12/25 00:20:59;;;;;;;48.83;15.43;;;6.80;99.90;;;;;;5050020;28;20275;-52
2022/12/25 00:23:25;;;;;;;53.15;16.25;;;6.80;99.90;;;;;;5044489;28;20068;-53
2022/12/25 00:25:51;;;;;;;55.40;15.75;;;6.80;99.90;;;;;;5030082;28;20116;-54
2022/12/25 00:28:17;;;;;;;51.22;16.75;;;6.90;99.90;;;;;;5029703;28;20037;-56
2022/12/25 00:30:43;;;;;;;46.97;15.63;;;6.90;99.90;;;;;;5029477;28;20046;-55
2022/12/25 00:33:08;;;;;;;44.63;15.87;;;6.90;99.90;;;;;;5027540;28;20045;-55
2022/12/25 00:35:34;;;;;;;62.57;17.17;;;6.90;99.90;;;;;;5032780;28;20396;-55
2022/12/25 00:37:59;;;;;;;53.77;15.60;;;6.90;99.90;;;;;;5081679;28;20049;-55
2022/12/25 00:40:25;;;;;;;43.67;15.00;;;6.90;99.90;;;;;;5048691;28;20033;-53
2022/12/25 00:42:50;;;;;;;55.20;16.83;;;6.90;99.90;;;;;;5049421;28;20051;-52
2022/12/25 00:45:16;;;;;;;48.13;16.53;;;6.90;99.90;;;;;;5047957;28;20474;-55
2022/12/25 00:47:42;;;;;;;63.40;17.47;;;6.80;99.90;;;;;;5049177;28;20514;-53
2022/12/25 00:50:08;;;;;;;59.37;16.70;;;6.80;99.90;;;;;;5048882;28;20053;-55
2022/12/25 00:52:33;;;;;;;45.58;14.98;;;6.80;99.90;;;;;;5049124;28;20517;-54
2022/12/25 00:54:59;;;;;;;59.63;16.27;;;6.80;99.90;;;;;;5048036;28;20076;-55
2022/12/25 00:57:24;;;;;;;54.13;14.83;;;6.80;99.90;;;;;;5048899;28;20045;-52
2022/12/25 00:59:50;;;;;;;57.70;17.07;;;6.90;99.90;;;;;;5049100;28;20068;-55
2022/12/25 01:02:24;;;;;;;68.63;16.57;;;6.80;99.90;;;;;;5049211;28;20047;-55
2022/12/25 01:04:53;;;;;;;47.58;14.57;;;6.80;99.90;;;;;;5035782;28;20150;-55
2022/12/25 01:07:20;;;;;;;46.67;16.58;;;6.80;99.90;;;;;;5049038;28;20401;-55
2022/12/25 01:12:33;;;;;;;50.45;13.38;;;6.80;99.90;;;;;;5039314;28;20706;-55
2022/12/25 01:14:58;;;;;;;48.88;14.90;;;6.80;99.90;;;;;;5052833;28;20049;-53
2022/12/25 01:17:24;;;;;;;52.77;16.10;;;6.80;99.90;;;;;;5053073;28;20646;-55
2022/12/25 01:19:49;;;;;;;61.33;15.93;;;6.90;99.90;;;;;;5052655;28;20044;-54
2022/12/25 01:22:15;;;;;;;51.30;14.47;;;6.80;99.90;;;;;;5053010;28;20124;-56
2022/12/25 01:24:42;;;;;;;53.00;16.17;;;6.90;99.90;;;;;;5052433;28;20029;-54
2022/12/25 01:27:09;;;;;;;53.47;15.55;;;6.90;99.90;;;;;;5052371;28;20314;-56
2022/12/25 01:29:34;;;;;;;45.75;14.93;;;6.90;99.90;;;;;;5053827;28;20029;-52
2022/12/25 01:32:00;;;;;;;47.40;15.50;;;7.00;99.90;;;;;;5053232;28;20109;-54
2022/12/25 01:34:25;;;;;;;52.10;14.00;;;7.10;99.90;;;;;;5040184;28;20041;-55
2022/12/25 01:36:51;;;;;;;39.30;14.47;;;7.10;99.90;;;;;;5033051;28;20094;-56
2022/12/25 01:39:17;;;;;;;41.33;12.57;;;7.20;99.90;;;;;;5033552;28;20029;-56
2022/12/25 01:41:42;;;;;;;43.37;15.13;;;7.20;99.90;;;;;;5033163;28;20272;-56
2022/12/25 01:44:34;;;;;;;52.03;16.53;;;7.30;99.90;;;;;;5030882;28;20041;-55
2022/12/25 01:46:59;;;;;;;55.13;14.90;;;7.40;99.90;;;;;;5048772;28;20230;-55
2022/12/25 01:49:25;;;;;;;57.97;14.97;;;7.40;99.90;;;;;;5053261;28;20569;-56
2022/12/25 01:51:56;;;;;;;35.08;14.38;;;7.40;99.90;;;;;;5053167;28;20401;-55
2022/12/25 01:54:27;;;;;;;43.05;14.05;;;7.40;99.90;;;;;;5051971;28;20052;-55
2022/12/25 01:56:57;;;;;;;43.50;13.50;;;7.40;99.90;;;;;;5052931;28;20055;-52
2022/12/25 01:59:25;;;;;;;41.35;13.45;;;7.40;99.90;;;;;;5053060;28;20094;-53
2022/12/25 02:01:51;;;;;;;51.45;14.38;;;7.50;99.90;;;;;;5053010;28;20086;-52
2022/12/25 02:04:37;;;;;;;45.40;12.87;;;7.50;99.90;;;;;;5051469;28;20375;-54
2022/12/25 02:07:11;;;;;;;40.22;13.55;;;7.50;99.90;;;;;;5052239;28;20060;-54
2022/12/25 02:09:37;;;;;;;50.03;13.82;;;7.60;99.90;;;;;;5042049;28;20403;-52
2022/12/25 02:12:04;;;;;;;48.78;14.15;;;7.60;99.90;;;;;;5052591;28;20037;-55
2022/12/25 02:14:33;;;;;;;38.65;12.77;;;7.60;99.90;;;;;;5051007;28;20462;-52
2022/12/25 02:17:21;;;;;;;40.78;13.27;;;7.60;99.90;;;;;;5051608;28;20048;-55
2022/12/25 02:20:10;;;;;;;39.72;12.43;;;7.70;99.90;;;;;;5052231;28;20044;-53
2022/12/25 02:23:02;;;;;;;37.90;11.77;;;7.70;99.90;;;;;;5052141;28;20379;-53
2022/12/25 02:25:59;;;;;;;43.75;12.27;;;7.70;99.90;;;;;;5051567;28;20052;-52
2022/12/25 02:28:51;;;;;;;40.53;13.13;;;7.80;99.90;;;;;;5050859;28;20515;-53
2022/12/25 02:31:33;;;;;;;35.22;12.18;;;7.80;99.90;;;;;;5051634;28;20440;-54
2022/12/25 02:34:12;;;;;;;39.97;14.75;;;7.80;99.90;;;;;;5049993;28;20052;-54
2022/12/25 02:37:26;;;;;;;51.70;15.80;;;7.80;99.90;;;;;;5051195;28;20041;-53
2022/12/25 02:40:24;;;;;;;32.67;13.07;;;7.80;99.90;;;;;;5050593;28;20148;-56
2022/12/25 03:08:37;;;;;;;36.33;12.73;;;7.90;99.90;;;;;;5050861;28;20045;-52
2022/12/25 03:16:49;;;;;;;38.55;12.50;;;7.90;99.90;;;;;;5049571;28;20107;-52
2022/12/25 03:16:52;;;;;;;47.15;14.45;;;8.00;99.90;;;;;;5038973;28;20049;-55
2022/12/25 03:27:41;;;;;;;35.17;14.20;;;8.00;99.90;;;;;;5050436;28;20131;-52
2022/12/25 03:33:16;;;;;;;35.60;13.18;;;8.00;99.90;;;;;;5034610;28;20410;-55
2022/12/25 03:36:02;;;;;;;43.22;13.43;;;8.00;99.90;;;;;;5050782;28;20324;-54
2022/12/25 03:45:03;;;;;;;42.28;15.13;;;8.10;99.90;;;;;;5049714;28;20049;-55
2022/12/25 04:37:45;;;;;;;42.05;16.55;;;8.40;99.90;;;;;;5029374;28;20041;-52
2022/12/25 04:40:11;;;;;;;35.57;16.17;;;8.40;99.90;;;;;;5029998;28;20037;-53
2022/12/25 04:42:36;;;;;;;38.60;16.05;;;8.50;99.90;;;;;;5028849;28;20069;-55
2022/12/25 04:45:02;;;;;;;36.67;16.73;;;8.50;99.90;;;;;;5028331;28;20052;-56
2022/12/25 04:47:28;;;;;;;37.63;16.83;;;8.50;99.90;;;;;;5030010;28;20088;-53
2022/12/25 04:49:53;;;;;;;46.40;17.03;;;8.50;99.90;;;;;;5029589;28;20418;-55
2022/12/25 04:52:19;;;;;;;39.20;16.33;;;8.50;99.90;;;;;;5029942;28;20122;-54
2022/12/25 04:54:44;;;;;;;39.10;16.30;;;8.50;99.90;;;;;;5028466;28;20045;-54
2022/12/25 04:57:10;;;;;;;42.07;16.57;;;8.50;99.90;;;;;;5029365;28;20044;-54
2022/12/25 04:59:36;;;;;;;36.23;16.87;;;8.60;99.90;;;;;;5029107;28;20038;-55
2022/12/25 05:02:01;;;;;;;49.83;17.40;;;8.50;99.90;;;;;;5029683;28;20037;-54
2022/12/25 05:04:27;;;;;;;50.47;17.67;;;8.60;99.90;;;;;;5028764;28;20395;-51
2022/12/25 05:06:52;;;;;;;39.77;16.77;;;8.60;99.90;;;;;;5029196;28;20095;-54
2022/12/25 05:09:18;;;;;;;52.83;17.43;;;8.60;99.90;;;;;;5032695;28;20051;-54
2022/12/25 05:11:43;;;;;;;42.83;19.20;;;8.60;99.90;;;;;;5049307;28;20033;-52
2022/12/25 05:14:09;;;;;;;40.50;19.10;;;8.60;99.90;;;;;;5048024;28;20122;-55
2022/12/25 05:16:34;;;;;;;48.07;19.03;;;8.70;99.90;;;;;;5047807;28;20482;-54
2022/12/25 05:19:00;;;;;;;48.37;19.90;;;8.70;99.90;;;;;;5048663;28;20036;-53
2022/12/25 05:21:25;;;;;;;35.20;18.57;;;8.70;99.90;;;;;;5048803;28;20116;-54
2022/12/25 05:23:51;;;;;;;42.43;19.77;;;8.80;99.90;;;;;;5048551;28;20037;-52
2022/12/25 05:26:20;;;;;;;41.90;19.83;;;8.80;99.90;;;;;;5048934;28;20037;-53
2022/12/25 05:28:46;;;;;;;41.72;19.13;;;8.80;99.90;;;;;;5048436;28;20033;-56
2022/12/25 05:31:12;;;;;;;48.35;19.67;;;8.90;99.90;;;;;;5048727;28;20064;-55
2022/12/25 05:33:37;;;;;;;39.77;18.23;;;8.80;99.90;;;;;;5048780;28;20069;-56
2022/12/25 05:36:04;;;;;;;38.75;18.85;;;8.90;99.90;;;;;;5048689;28;20552;-56
2022/12/25 05:38:31;;;;;;;43.83;19.25;;;8.90;99.90;;;;;;5048653;28;20048;-56
2022/12/25 05:40:56;;;;;;;43.33;18.50;;;8.90;99.90;;;;;;5048589;28;20076;-56
2022/12/25 05:43:22;;;;;;;42.25;19.30;;;9.00;99.90;;;;;;5047235;28;20522;-56
2022/12/25 05:45:48;;;;;;;38.40;17.33;;;9.00;99.90;;;;;;5042767;28;20091;-54
2022/12/25 05:48:14;;;;;;;39.58;17.15;;;9.00;99.90;;;;;;5028934;28;20442;-55
2022/12/25 05:50:40;;;;;;;36.17;18.15;;;9.00;99.90;;;;;;5042194;28;20349;-55
2022/12/25 05:53:11;;;;;;;35.80;18.07;;;9.00;99.90;;;;;;5047992;28;20045;-54
2022/12/25 05:55:38;;;;;;;38.85;18.95;;;9.00;99.90;;;;;;5051960;28;20041;-56
2022/12/25 05:58:05;;;;;;;34.83;16.42;;;9.00;99.90;;;;;;5052476;28;20056;-53
2022/12/25 06:00:31;;;;;;;32.90;16.80;;;9.00;99.90;;;;;;5052962;28;20033;-55
2022/12/25 06:02:57;;;;;;;37.75;16.85;;;9.00;99.90;;;;;;5038370;28;20509;-56
2022/12/25 06:05:23;;;;;;;37.05;17.65;;;9.00;99.90;;;;;;5032192;28;20034;-54
2022/12/25 06:07:48;;;;;;;38.60;17.20;;;9.00;99.90;;;;;;5032940;28;20037;-53
2022/12/25 06:10:14;;;;;;;40.53;17.20;;;9.00;99.90;;;;;;5033046;28;20037;-54
2022/12/25 06:12:39;;;;;;;38.43;15.47;;;9.00;99.90;;;;;;5033035;28;20073;-55
2022/12/25 06:15:06;;;;;;;43.07;16.83;;;9.00;99.90;;;;;;5031747;28;20383;-55
2022/12/25 06:17:31;;;;;;;30.10;15.15;;;9.00;99.90;;;;;;5045461;28;20066;-55
2022/12/25 06:19:57;;;;;;;23.67;14.90;;;9.00;99.90;;;;;;5052200;28;20215;-56
2022/12/25 06:22:27;;;;;;;32.70;14.68;;;9.00;99.90;;;;;;5052742;28;20127;-56
2022/12/25 06:24:52;;;;;;;32.55;14.25;;;9.00;99.90;;;;;;5050701;28;20039;-56
2022/12/25 06:27:18;;;;;;;36.57;14.77;;;9.00;99.90;;;;;;5052413;28;20041;-54
2022/12/25 06:29:43;;;;;;;34.03;14.40;;;9.00;99.90;;;;;;5052324;28;20072;-53
2022/12/25 06:32:09;;;;;;;33.30;14.17;;;9.00;99.90;;;;;;5052319;28;20300;-55
2022/12/25 06:34:34;;;;;;;28.57;13.90;;;9.00;99.90;;;;;;5051151;28;20457;-53
2022/12/25 06:37:00;;;;;;;29.67;13.97;;;9.00;99.90;;;;;;5050088;28;20098;-53
2022/12/25 06:39:25;;;;;;;26.50;14.07;;;9.00;99.90;;;;;;5051652;28;20091;-52
2022/12/25 06:41:51;;;;;;;26.13;12.70;;;9.00;99.90;;;;;;5052026;28;20427;-54
2022/12/25 06:44:17;;;;;;;20.20;11.87;;;9.00;99.90;;;;;;5050775;28;20037;-53
2022/12/25 06:46:42;;;;;;;22.57;13.27;;;9.00;99.90;;;;;;5051374;28;20094;-54
2022/12/25 06:49:09;;;;;;;29.47;13.47;;;9.00;99.90;;;;;;5035714;28;20041;-54
2022/12/25 06:51:34;;;;;;;29.40;12.02;;;9.00;99.90;;;;;;5034834;28;20078;-54
2022/12/25 06:54:04;;;;;;;23.23;11.70;;;9.00;99.90;;;;;;5050753;28;20116;-53
2022/12/25 06:56:30;;;;;;;28.70;12.20;;;8.90;99.90;;;;;;5051369;28;20094;-55
2022/12/25 06:59:00;;;;;;;22.25;11.55;;;8.90;99.90;;;;;;5051568;28;20033;-54
2022/12/25 07:01:31;;;;;;;26.02;12.32;;;8.90;99.90;;;;;;5051488;28;20509;-53
2022/12/25 07:04:02;;;;;;;18.33;10.60;;;8.90;99.90;;;;;;5046358;28;20044;-52
2022/12/25 07:06:28;;;;;;;28.70;11.27;;;8.90;99.90;;;;;;5030123;28;20049;-55
2022/12/25 07:08:54;;;;;;;21.52;10.23;;;8.90;99.90;;;;;;5030846;28;20296;-53
2022/12/25 07:11:20;;;;;;;30.90;11.55;;;8.90;99.90;;;;;;5031975;28;20053;-53
2022/12/25 07:13:46;;;;;;;17.70;9.85;;;8.90;99.90;;;;;;5030667;28;20045;-55
2022/12/25 07:16:12;;;;;;;26.30;11.40;;;8.80;99.90;;;;;;5033450;28;20383;-52
2022/12/25 07:18:38;;;;;;;24.33;10.40;;;8.80;99.90;;;;;;5050826;28;20544;-51
2022/12/25 07:21:08;;;;;;;;;;;8.80;99.90;;;;;;5051373;28;20045;-55
2022/12/25 07:23:34;;;;;;;22.73;8.98;;;8.80;99.90;;;;;;5050105;28;19923;-55
2022/12/25 07:26:01;;;;;;;16.02;9.15;;;8.80;99.90;;;;;;5050710;28;20048;-57
2022/12/25 07:28:27;;;;;;;17.52;9.40;;;8.80;99.90;;;;;;5050575;28;20071;-52
2022/12/25 07:30:53;;;;;;;19.73;8.65;;;8.80;99.90;;;;;;5050720;28;20319;-54
2022/12/25 07:33:19;;;;;;;23.90;9.30;;;8.80;99.90;;;;;;5049036;28;20064;-52
2022/12/25 07:35:44;;;;;;;19.23;9.20;;;8.80;99.90;;;;;;5049598;28;20118;-55
2022/12/25 07:38:10;;;;;;;25.35;8.57;;;8.90;99.90;;;;;;5047532;28;20048;-52
2022/12/25 07:40:36;;;;;;;21.90;9.35;;;8.90;99.90;;;;;;5049163;28;20506;-53
2022/12/25 07:43:02;;;;;;;19.15;9.07;;;8.90;99.90;;;;;;5049993;28;20131;-55
2022/12/25 07:45:27;;;;;;;16.57;8.63;;;8.90;99.90;;;;;;5050240;28;20048;-56
2022/12/25 07:47:53;;;;;;;25.47;9.47;;;8.90;99.90;;;;;;5050636;28;20071;-55
2022/12/25 07:50:19;;;;;;;18.43;8.90;;;8.90;99.90;;;;;;5050674;28;20423;-55
2022/12/25 07:52:45;;;;;;;19.77;9.77;;;8.90;99.90;;;;;;5050880;28;20471;-56
2022/12/25 07:55:11;;;;;;;19.17;8.93;;;8.80;99.90;;;;;;5049034;28;20572;-56
2022/12/25 07:57:37;;;;;;;18.30;10.30;;;8.80;99.90;;;;;;5050397;28;20437;-53
2022/12/25 08:00:04;;;;;;;26.95;10.60;;;8.90;99.90;;;;;;5050853;28;20029;-54
2022/12/25 08:02:30;;;;;;;22.67;8.88;;;8.90;99.90;;;;;;5050797;28;20127;-56
2022/12/25 08:04:55;;;;;;;21.27;8.37;;;8.90;99.90;;;;;;5049292;28;20116;-54
2022/12/25 08:07:22;;;;;;;18.23;8.27;;;8.90;99.90;;;;;;5049698;28;20048;-55
2022/12/25 08:09:47;;;;;;;15.43;8.93;;;8.90;99.90;;;;;;5049002;28;20052;-56
2022/12/25 08:12:13;;;;;;;21.08;9.50;;;9.00;99.90;;;;;;5048441;28;20049;-56
2022/12/25 08:14:38;;;;;;;19.57;8.30;;;9.00;99.90;;;;;;5049282;28;20625;-56
2022/12/25 08:17:04;;;;;;;26.52;9.50;;;9.00;99.90;;;;;;5048902;28;20513;-55
2022/12/25 08:19:30;;;;;;;19.07;7.43;;;9.10;99.90;;;;;;5049483;28;20040;-56
2022/12/25 08:21:55;;;;;;;13.87;7.67;;;9.10;99.90;;;;;;5049515;28;20514;-56
2022/12/25 08:24:21;;;;;;;17.97;7.50;;;9.20;99.90;;;;;;5049149;28;20406;-56
2022/12/25 08:26:47;;;;;;;19.58;7.63;;;9.20;99.90;;;;;;5049218;28;20033;-56
2022/12/25 08:29:13;;;;;;;15.68;8.25;;;9.30;99.90;;;;;;5050270;28;20038;-56
2022/12/25 08:31:41;;;;;;;27.25;8.90;;;9.30;99.90;;;;;;5049899;28;20036;-56
2022/12/25 08:34:07;;;;;;;12.30;6.80;;;9.30;99.90;;;;;;5048760;28;20052;-56
2022/12/25 08:36:32;;;;;;;18.83;9.18;;;9.30;99.90;;;;;;5049745;28;20041;-56
2022/12/25 08:38:58;;;;;;;19.73;7.70;;;9.40;99.90;;;;;;5044344;28;20490;-56
2022/12/25 08:41:23;;;;;;;17.40;7.53;;;9.30;99.90;;;;;;5053694;28;20028;-56
2022/12/25 08:43:49;;;;;;;18.53;7.67;;;9.40;99.90;;;;;;5051341;28;20080;-56
2022/12/25 08:46:15;;;;;;;16.70;8.45;;;9.40;99.90;;;;;;5049285;28;20029;-55
2022/12/25 08:48:42;;;;;;;15.27;7.47;;;9.40;99.90;;;;;;5048203;28;20124;-54
2022/12/25 08:51:13;;;;;;;15.38;7.43;;;9.40;99.90;;;;;;5049854;28;20044;-52
2022/12/25 08:53:39;;;;;;;14.13;7.53;;;9.40;99.90;;;;;;5048910;28;20060;-54
2022/12/25 08:56:05;;;;;;;14.48;6.95;;;9.40;99.90;;;;;;5049191;28;20254;-52
2022/12/25 08:58:31;;;;;;;14.77;6.30;;;9.50;99.90;;;;;;5045138;28;20041;-55
2022/12/25 09:00:58;;;;;;;;;;;9.50;99.90;;;;;;5048910;28;20295;-53
2022/12/25 09:03:24;;;;;;;17.67;7.90;;;9.50;99.90;;;;;;5048430;28;19921;-53
2022/12/25 09:05:51;;;;;;;18.65;6.97;;;9.50;99.90;;;;;;5048834;28;20071;-53
2022/12/25 09:08:16;;;;;;;11.55;7.00;;;9.50;99.90;;;;;;5048954;28;20445;-54
2022/12/25 09:10:42;;;;;;;17.05;6.97;;;9.50;99.90;;;;;;5081950;28;20060;-55
2022/12/25 09:13:08;;;;;;;13.27;8.40;;;9.50;99.90;;;;;;5048066;28;20033;-54
2022/12/25 09:15:36;;;;;;;13.05;6.05;;;9.50;99.90;;;;;;5048957;28;20499;-54
2022/12/25 09:18:01;;;;;;;11.85;7.00;;;9.50;99.90;;;;;;5048174;28;20498;-55
2022/12/25 09:20:27;;;;;;;13.27;7.00;;;9.50;99.90;;;;;;5049393;28;20056;-55
2022/12/25 09:22:52;;;;;;;14.90;7.07;;;9.60;99.90;;;;;;5046824;28;20401;-56
2022/12/25 09:25:18;;;;;;;14.07;7.40;;;9.60;99.90;;;;;;5048442;28;20083;-52
2022/12/25 09:27:44;;;;;;;17.73;7.17;;;9.50;99.90;;;;;;5049021;28;20041;-53
2022/12/25 09:30:10;;;;;;;14.73;5.93;;;9.60;99.90;;;;;;5051127;28;20075;-55
2022/12/25 09:32:35;;;;;;;15.65;7.63;;;9.60;99.90;;;;;;5053170;28;20094;-56
2022/12/25 09:35:01;;;;;;;12.23;7.03;;;9.50;99.90;;;;;;5052201;28;20037;-52
2022/12/25 09:37:27;;;;;;;15.50;7.55;;;9.00;99.90;;;;;;5052746;28;20518;-53
2022/12/25 09:39:53;;;;;;;8.15;6.18;;;9.60;99.90;;;;;;5053022;28;20529;-56
2022/12/25 09:42:27;;;;;;;12.63;6.57;;;9.60;99.90;;;;;;5053475;28;20025;-57
2022/12/25 09:44:55;;;;;;;9.25;5.95;;;9.60;99.90;;;;;;5051358;28;20498;-53
2022/12/25 09:47:24;;;;;;;17.50;6.90;;;9.60;99.90;;;;;;5052408;28;20095;-57
2022/12/25 09:50:00;;;;;;;12.07;6.22;;;9.60;99.90;;;;;;5050013;28;20033;-56
2022/12/25 09:52:36;;;;;;;13.85;6.55;;;9.60;99.90;;;;;;5051905;28;20666;-54
2022/12/25 09:55:18;;;;;;;15.23;7.85;;;9.60;99.90;;;;;;5050605;28;20052;-55
2022/12/25 09:57:46;;;;;;;14.02;7.40;;;9.70;99.90;;;;;;5052558;28;20037;-53
2022/12/25 10:00:22;;;;;;;13.60;6.88;;;9.70;99.90;;;;;;5051640;28;20076;-57
2022/12/25 10:03:30;;;;;;;15.55;7.65;;;9.60;99.90;;;;;;5052905;28;20039;-56
2022/12/25 10:06:10;;;;;;;12.93;7.35;;;9.60;99.90;;;;;;5031901;28;20057;-56
2022/12/25 10:09:16;;;;;;;23.48;8.32;;;9.60;99.90;;;;;;5038188;28;20124;-54
2022/12/25 10:11:53;;;;;;;24.60;8.40;;;9.60;99.90;;;;;;5052284;28;20119;-54
2022/12/25 10:14:32;;;;;;;18.83;7.65;;;9.60;99.90;;;;;;5051265;28;20102;-54
2022/12/25 10:17:07;;;;;;;20.27;6.82;;;9.60;99.90;;;;;;5052050;28;20086;-56
2022/12/25 10:19:42;;;;;;;22.17;8.80;;;9.60;99.90;;;;;;5051027;28;20394;-56
2022/12/25 10:22:40;;;;;;;14.70;8.50;;;9.60;99.90;;;;;;5051948;28;20048;-54
2022/12/25 10:25:13;;;;;;;;;;;9.60;99.90;;;;;;5048388;28;20151;-55
2022/12/25 10:27:41;;;;;;;15.43;8.07;;;9.60;99.90;;;;;;5049430;28;19999;-56
2022/12/25 10:30:36;;;;;;;14.70;8.20;;;9.60;99.90;;;;;;5048817;28;20049;-56
2022/12/25 10:33:02;;;;;;;14.88;8.88;;;9.60;99.90;;;;;;5040031;28;20056;-57
2022/12/25 10:35:28;;;;;;;17.30;8.53;;;9.60;99.90;;;;;;5048694;28;20049;-57
2022/12/25 10:37:59;;;;;;;19.05;9.15;;;9.60;99.90;;;;;;5049034;28;20736;-55
2022/12/25 10:40:43;;;;;;;12.80;8.05;;;9.60;99.90;;;;;;5047506;28;20037;-56
2022/12/25 10:43:21;;;;;;;14.80;8.20;;;9.60;99.90;;;;;;5031537;28;20107;-55
2022/12/25 10:45:48;;;;;;;19.10;8.30;;;9.60;99.90;;;;;;5048762;28;20513;-56
2022/12/25 10:48:18;;;;;;;;;;;9.60;99.90;;;;;;5032503;28;20502;-55
2022/12/25 10:50:43;;;;;;;18.48;9.00;;;9.60;99.90;;;;;;5032117;28;19951;-56
2022/12/25 10:53:18;;;;;;;14.73;7.90;;;9.60;99.90;;;;;;5044689;28;20040;-54
2022/12/25 10:55:54;;;;;;;19.27;8.07;;;9.60;99.90;;;;;;5047604;28;20052;-56
2022/12/25 10:58:19;;;;;;;17.17;9.10;;;9.60;99.90;;;;;;5047870;28;20037;-56
2022/12/25 11:00:52;;;;;;;22.90;9.48;;;9.60;99.90;;;;;;5036377;28;20056;-55
2022/12/25 11:03:24;;;;;;;14.30;8.05;;;9.60;99.90;;;;;;5049893;28;20539;-52
2022/12/25 11:05:53;;;;;;;18.77;10.18;;;9.60;99.90;;;;;;5048124;28;20033;-54
2022/12/25 11:08:21;;;;;;;17.23;10.13;;;9.60;99.90;;;;;;5050477;28;20142;-53
2022/12/25 11:11:06;;;;;;;16.48;10.57;;;9.50;99.90;;;;;;5040661;28;20045;-54
2022/12/25 11:13:38;;;;;;;16.38;10.30;;;9.50;99.90;;;;;;5030865;28;20037;-54
2022/12/25 11:16:12;;;;;;;22.45;11.55;;;9.50;99.90;;;;;;5042751;28;20406;-56
2022/12/25 11:18:47;;;;;;;20.98;10.57;;;9.40;99.90;;;;;;5050499;28;20175;-53
2022/12/25 11:21:26;;;;;;;17.67;11.25;;;9.40;99.90;;;;;;5051357;28;20036;-55
2022/12/25 11:24:00;;;;;;;20.17;12.10;;;9.40;99.90;;;;;;5049708;28;20087;-55
2022/12/25 11:26:30;;;;;;;24.63;10.35;;;9.40;99.90;;;;;;5050999;28;20041;-53
2022/12/25 11:28:56;;;;;;;16.08;10.85;;;9.40;99.90;;;;;;5050321;28;20040;-52
2022/12/25 11:31:28;;;;;;;;;;;9.40;99.90;;;;;;5050245;28;20045;-52
2022/12/25 11:34:22;;;;;;;25.30;11.82;;;9.40;99.90;;;;;;5049077;28;20185;-52
2022/12/25 11:36:50;;;;;;;17.10;10.20;;;9.40;99.90;;;;;;5030578;28;20048;-53
2022/12/25 11:39:26;;;;;;;25.27;11.57;;;9.40;99.90;;;;;;5043094;28;20045;-54
2022/12/25 11:42:07;;;;;;;26.38;12.63;;;9.30;99.90;;;;;;5030867;28;20124;-56
2022/12/25 11:44:40;;;;;;;22.75;12.75;;;9.30;99.90;;;;;;5031370;28;20049;-53
2022/12/25 11:47:16;;;;;;;22.38;12.48;;;9.30;99.90;;;;;;5030435;28;20054;-54
2022/12/25 11:49:55;;;;;;;22.05;12.75;;;9.30;99.90;;;;;;5040738;28;20465;-57
2022/12/25 11:52:22;;;;;;;21.27;12.15;;;9.30;99.90;;;;;;5050150;28;20135;-54
2022/12/25 11:54:57;;;;;;;17.70;12.50;;;9.20;99.90;;;;;;5049551;28;20045;-57
2022/12/25 11:57:25;;;;;;;20.98;12.65;;;9.20;99.90;;;;;;5049966;28;20071;-56
2022/12/25 12:00:08;;;;;;;23.95;14.05;;;9.20;99.90;;;;;;5048431;28;20044;-53
2022/12/25 12:02:43;;;;;;;26.45;15.50;;;9.20;99.90;;;;;;5049994;28;20044;-56
2022/12/25 12:05:42;;;;;;;28.23;15.30;;;9.20;99.90;;;;;;5036702;28;20033;-53
2022/12/25 12:08:09;;;;;;;27.30;13.70;;;9.20;99.90;;;;;;5049921;28;20044;-53
2022/12/25 12:10:56;;;;;;;25.40;14.55;;;9.10;99.90;;;;;;5048601;28;20111;-53
2022/12/25 12:13:26;;;;;;;27.08;13.63;;;9.20;99.90;;;;;;5049126;28;20121;-55
2022/12/25 12:15:52;;;;;;;23.98;13.68;;;9.20;99.90;;;;;;5082136;28;20445;-56
2022/12/25 12:18:26;;;;;;;38.27;14.40;;;9.20;99.90;;;;;;5049647;28;20336;-54
2022/12/25 12:21:30;;;;;;;22.75;13.90;;;9.20;99.90;;;;;;5049419;28;20155;-55
2022/12/25 12:24:04;;;;;;;25.88;13.68;;;9.20;99.90;;;;;;5049034;28;20041;-56
2022/12/25 12:26:36;;;;;;;26.15;14.40;;;9.20;99.90;;;;;;5049257;28;20506;-56
2022/12/25 12:29:05;;;;;;;25.92;14.15;;;9.10;99.90;;;;;;5049982;28;20473;-57
2022/12/25 12:31:44;;;;;;;25.70;13.65;;;9.10;99.90;;;;;;5048521;28;20037;-56
2022/12/25 12:34:24;;;;;;;28.48;14.18;;;9.10;99.90;;;;;;5048969;28;20072;-57
2022/12/25 12:36:53;;;;;;;28.23;15.02;;;9.10;99.90;;;;;;5048940;28;20045;-53
2022/12/25 12:39:25;;;;;;;22.05;12.27;;;9.10;99.90;;;;;;5050125;28;20048;-53
2022/12/25 12:41:51;;;;;;;21.42;13.18;;;9.10;99.90;;;;;;5047745;28;20037;-56
2022/12/25 12:44:18;;;;;;;24.15;13.48;;;9.10;99.90;;;;;;5048931;28;20037;-55
2022/12/25 12:46:55;;;;;;;21.45;13.30;;;9.10;99.90;;;;;;5049045;28;20067;-55
2022/12/25 12:49:24;;;;;;;20.45;12.93;;;9.10;99.90;;;;;;5050126;28;20051;-56
2022/12/25 12:52:19;;;;;;;24.10;13.02;;;9.10;99.90;;;;;;5049160;28;20126;-54
2022/12/25 12:54:58;;;;;;;21.77;10.50;;;9.10;99.90;;;;;;5048075;28;20144;-55
2022/12/25 12:57:28;;;;;;;23.70;11.45;;;9.00;99.90;;;;;;5048607;28;20420;-56
2022/12/25 12:59:56;;;;;;;22.38;11.98;;;9.00;99.90;;;;;;5049980;28;20402;-56
2022/12/25 13:02:43;;;;;;;22.77;11.95;;;9.00;99.90;;;;;;5048766;28;20048;-56
2022/12/25 13:05:19;;;;;;;25.17;11.50;;;9.00;99.90;;;;;;5035587;28;20044;-55
2022/12/25 13:07:55;;;;;;;20.65;10.35;;;9.00;99.90;;;;;;5048772;28;20045;-54
2022/12/25 13:10:42;;;;;;;21.10;11.70;;;9.00;99.90;;;;;;5049117;28;20541;-53
2022/12/25 13:13:19;;;;;;;21.25;11.55;;;9.00;99.90;;;;;;5044292;28;20041;-54
2022/12/25 13:15:47;;;;;;;;;;;9.00;99.90;;;;;;5048965;28;20336;-55
2022/12/25 13:18:13;;;;;;;22.52;11.30;;;8.90;99.90;;;;;;5048964;28;19927;-56
2022/12/25 13:20:53;;;;;;;;;;;8.90;99.90;;;;;;5049301;28;20075;-55
2022/12/25 13:23:36;;;;;;;21.67;12.75;;;9.00;99.90;;;;;;5041334;28;19928;-53
2022/12/25 13:26:11;;;;;;;22.42;13.38;;;8.90;99.90;;;;;;5048645;28;20095;-55
2022/12/25 13:28:36;;;;;;;24.77;14.27;;;8.90;99.90;;;;;;5049341;28;20091;-55
2022/12/25 13:31:06;;;;;;;27.03;15.43;;;8.90;99.90;;;;;;5049473;28;20069;-55
2022/12/25 13:33:32;;;;;;;22.73;13.00;;;8.90;99.90;;;;;;5028675;28;20564;-53
2022/12/25 13:35:57;;;;;;;27.83;12.50;;;8.90;99.90;;;;;;5037975;28;20068;-55
2022/12/25 13:38:26;;;;;;;24.17;12.85;;;8.90;99.90;;;;;;5047116;28;20040;-52
2022/12/25 13:43:39;;;;;;;21.25;12.40;;;8.90;99.90;;;;;;5028153;28;20531;-55
2022/12/25 13:46:05;;;;;;;18.77;12.35;;;8.90;99.90;;;;;;5036521;28;20045;-53
2022/12/25 13:48:31;;;;;;;18.08;11.77;;;8.90;99.90;;;;;;5048295;28;20387;-55
2022/12/25 13:50:58;;;;;;;21.48;12.00;;;8.90;99.90;;;;;;5049214;28;20666;-53
2022/12/25 13:53:25;;;;;;;17.85;10.45;;;8.90;99.90;;;;;;5047943;28;20045;-56
2022/12/25 13:55:53;;;;;;;24.77;12.80;;;8.90;99.90;;;;;;5048751;28;20098;-54
2022/12/25 13:58:46;;;;;;;21.48;12.80;;;8.90;99.90;;;;;;5048355;28;20063;-56
2022/12/25 14:01:15;;;;;;;19.52;11.07;;;8.90;99.90;;;;;;5047750;28;20045;-53
2022/12/25 14:03:44;;;;;;;15.82;11.25;;;8.90;99.90;;;;;;5047842;28;20073;-54
2022/12/25 14:06:16;;;;;;;19.92;11.75;;;8.90;99.90;;;;;;5048226;28;20067;-56
2022/12/25 14:08:43;;;;;;;22.67;11.63;;;8.90;99.90;;;;;;5048723;28;20037;-57
2022/12/25 14:11:09;;;;;;;;;;;8.90;99.90;;;;;;5049338;28;20127;-56
2022/12/25 14:13:39;;;;;;;20.02;12.40;;;8.90;99.90;;;;;;5047549;28;19917;-56
2022/12/25 14:16:05;;;;;;;25.55;12.70;;;8.90;99.90;;;;;;5050737;28;20036;-54
2022/12/25 14:18:32;;;;;;;24.85;14.30;;;8.90;99.90;;;;;;5051785;28;20072;-55
2022/12/25 14:21:04;;;;;;;;;;;8.90;99.90;;;;;;5052947;28;20037;-56
2022/12/25 14:23:43;;;;;;;29.00;16.48;;;8.90;99.90;;;;;;5051212;28;19989;-55
2022/12/25 14:26:17;;;;;;;27.33;16.75;;;8.90;99.90;;;;;;5051590;28;20045;-54
2022/12/25 14:28:54;;;;;;;26.75;16.27;;;8.80;99.90;;;;;;5051460;28;20465;-57
2022/12/25 14:31:21;;;;;;;28.70;16.70;;;8.80;99.90;;;;;;5052428;28;20048;-56
2022/12/25 14:33:47;;;;;;;29.20;14.95;;;8.80;99.90;;;;;;5050770;28;20451;-57
2022/12/25 14:36:13;;;;;;;24.48;15.88;;;8.80;99.90;;;;;;5051879;28;20119;-55
2022/12/25 14:38:40;;;;;;;;;;;8.80;99.90;;;;;;5050620;28;20040;-56
2022/12/25 14:41:42;;;;;;;23.42;15.18;;;8.80;99.90;;;;;;5050372;28;19917;-58